Time;durP1;ratioP1;P1;durP2;ratioP2;P2;SDS_P1;SDS_P2;PMS_P1;PMS_P2;Temp;Humidity;BMP_temperature;BMP_pressure;BME280_temperature;BME280_humidity;BME280_pressure;Samples;Min_cycle;Max_cycle;Signal;HPM_P1;HPM_P2
2021/03/13 00:01:22;;;;;;;10.80;6.53;;;;;;;-4.07;92.85;100761.72;1706028;84;21141;-41
2021/03/13 00:03:50;;;;;;;13.90;6.83;;;;;;;-4.02;92.85;100767.39;1706203;84;20944;-41
2021/03/13 00:06:18;;;;;;;21.33;7.60;;;;;;;-4.00;92.87;100755.29;1706098;84;21388;-40
2021/03/13 00:08:45;;;;;;;24.70;9.03;;;;;;;-3.98;92.91;100749.02;1706184;84;22005;-41
2021/03/13 00:11:13;;;;;;;18.60;8.03;;;;;;;-3.97;92.91;100750.37;1706089;83;21015;-41
2021/03/13 00:13:41;;;;;;;15.60;7.15;;;;;;;-3.94;92.95;100749.23;1706098;84;21071;-40
2021/03/13 00:16:09;;;;;;;17.23;6.95;;;;;;;-3.90;92.99;100751.52;1706126;83;21593;-40
2021/03/13 00:18:38;;;;;;;21.45;6.83;;;;;;;-3.88;93.02;100742.72;1706203;84;22385;-40
2021/03/13 00:21:05;;;;;;;16.65;8.50;;;;;;;-3.85;92.97;100745.37;1706034;84;21016;-40
2021/03/13 00:23:34;;;;;;;19.85;7.55;;;;;;;-3.83;93.10;100743.40;1706072;84;21015;-40
2021/03/13 00:26:02;;;;;;;19.70;6.90;;;;;;;-3.81;93.12;100740.53;1706077;84;21655;-40
2021/03/13 00:28:30;;;;;;;17.48;7.12;;;;;;;-3.78;93.17;100738.14;1706143;84;20968;-42
2021/03/13 00:30:58;;;;;;;40.17;7.72;;;;;;;-3.75;93.09;100742.48;1706111;84;21346;-41
2021/03/13 00:33:35;;;;;;;64.75;8.45;;;;;;;-3.72;93.10;100725.28;1705991;84;20983;-42
2021/03/13 00:35:59;;;;;;;56.58;9.38;;;;;;;-3.70;93.17;100733.81;1705850;83;20956;-41
2021/03/13 00:38:27;;;;;;;26.68;8.03;;;;;;;-3.67;93.17;100733.55;1706114;84;21038;-42
2021/03/13 00:40:54;;;;;;;27.25;7.83;;;;;;;-3.64;93.20;100731.57;1706248;83;21075;-40
2021/03/13 00:43:22;;;;;;;27.80;8.30;;;;;;;-3.63;93.23;100729.09;1706212;82;21367;-40
2021/03/13 00:45:49;;;;;;;51.30;7.78;;;;;;;-3.61;93.17;100721.16;1706181;84;21058;-40
2021/03/13 00:48:17;;;;;;;33.15;8.15;;;;;;;-3.59;93.11;100726.69;1706286;84;21023;-40
2021/03/13 00:50:46;;;;;;;39.25;7.80;;;;;;;-3.58;93.07;100721.70;1684747;84;21011;-40
2021/03/13 00:53:14;;;;;;;56.10;9.15;;;;;;;-3.55;93.09;100722.22;1706206;83;21164;-40
2021/03/13 00:55:42;;;;;;;48.17;8.25;;;;;;;-3.54;93.13;100724.83;1718502;83;21562;-41
2021/03/13 00:58:11;;;;;;;46.98;9.38;;;;;;;-3.51;93.08;100722.84;1719774;83;21050;-42
2021/03/13 01:00:44;;;;;;;47.80;7.78;;;;;;;-3.49;93.09;100726.30;1719269;83;21101;-41
2021/03/13 01:03:12;;;;;;;38.70;7.75;;;;;;;-3.46;93.20;100730.23;1719762;83;21027;-42
2021/03/13 01:05:41;;;;;;;46.40;7.90;;;;;;;-3.44;93.21;100717.63;1719883;83;21488;-42
2021/03/13 01:08:10;;;;;;;13.43;6.78;;;;;;;-3.43;93.18;100718.09;1719738;82;21369;-42
2021/03/13 01:10:39;;;;;;;54.20;8.15;;;;;;;-3.40;93.18;100709.39;1716810;83;20962;-41
2021/03/13 01:13:10;;;;;;;11.88;7.00;;;;;;;-3.43;93.03;100713.91;1719599;82;20983;-42
2021/03/13 01:15:39;;;;;;;10.65;7.58;;;;;;;-3.40;93.03;100710.66;1719727;83;21002;-41
2021/03/13 01:18:07;;;;;;;16.15;7.40;;;;;;;-3.39;93.17;100709.43;1719767;83;21038;-41
2021/03/13 01:20:36;;;;;;;12.33;7.53;;;;;;;-3.38;93.12;100712.84;1719776;83;21337;-42
2021/03/13 01:23:04;;;;;;;14.58;7.33;;;;;;;-3.37;93.18;100712.89;1719752;83;21014;-40
2021/03/13 01:25:32;;;;;;;9.15;6.75;;;;;;;-3.38;93.08;100714.95;1719784;82;21046;-40
2021/03/13 01:28:00;;;;;;;10.35;6.80;;;;;;;-3.36;93.08;100715.04;1719744;83;20933;-43
2021/03/13 01:30:28;;;;;;;13.18;7.15;;;;;;;-3.34;93.19;100713.44;1719780;83;21055;-40
2021/03/13 01:32:57;;;;;;;16.17;7.03;;;;;;;-3.32;93.17;100714.36;1719818;83;21203;-40
2021/03/13 01:35:25;;;;;;;10.65;7.17;;;;;;;-3.30;93.25;100713.14;1719629;83;21018;-42
2021/03/13 01:37:53;;;;;;;11.15;7.75;;;;;;;-3.29;93.19;100717.02;1719726;83;20967;-40
2021/03/13 01:40:22;;;;;;;9.53;7.22;;;;;;;-3.26;93.28;100709.55;1719724;83;21026;-40
2021/03/13 01:42:50;;;;;;;10.70;6.92;;;;;;;-3.24;93.18;100706.67;1719768;82;21002;-40
2021/03/13 01:45:23;;;;;;;13.62;7.50;;;;;;;-3.22;93.14;100698.73;1719166;83;21600;-39
2021/03/13 01:47:54;;;;;;;16.70;6.90;;;;;;;-3.20;93.03;100706.00;1719720;83;21038;-40
2021/03/13 01:50:22;;;;;;;9.48;7.35;;;;;;;-3.17;93.02;100704.01;1719699;83;20986;-40
2021/03/13 01:52:50;;;;;;;14.73;7.60;;;;;;;-3.15;92.93;100703.67;1719678;83;20979;-40
2021/03/13 01:55:19;;;;;;;9.38;6.80;;;;;;;-3.15;92.70;100697.75;1697603;83;21555;-40
2021/03/13 01:57:48;;;;;;;12.10;7.75;;;;;;;-3.14;92.68;100688.08;1727205;83;21373;-40
2021/03/13 02:00:21;;;;;;;15.78;8.65;;;;;;;-3.15;92.46;100708.73;1727136;83;20962;-40
2021/03/13 02:02:50;;;;;;;18.75;8.00;;;;;;;-3.15;92.35;100701.13;1726909;83;21516;-40
2021/03/13 02:05:26;;;;;;;15.08;8.10;;;;;;;-3.17;92.15;100703.59;1727000;83;20947;-40
2021/03/13 02:08:38;;;;;;;38.95;10.28;;;;;;;-3.15;92.20;100702.40;1727259;83;20951;-40
2021/03/13 02:11:29;;;;;;;28.42;8.88;;;;;;;-3.12;92.33;100704.20;1727170;83;21384;-40
2021/03/13 02:14:30;;;;;;;25.00;11.03;;;;;;;-3.11;92.43;100712.27;1727104;83;20923;-40
2021/03/13 02:17:11;;;;;;;18.50;9.70;;;;;;;-3.10;92.36;100705.13;1726492;83;21052;-40
2021/03/13 02:20:24;;;;;;;17.23;9.50;;;;;;;-3.09;92.38;100696.73;1727157;83;21053;-40
2021/03/13 02:22:53;;;;;;;16.45;9.08;;;;;;;-3.08;92.48;100694.24;1726642;83;21002;-40
2021/03/13 02:26:13;;;;;;;14.55;9.75;;;;;;;-3.08;92.22;100687.06;1727218;83;21389;-40
2021/03/13 02:28:49;;;;;;;20.10;9.05;;;;;;;-3.08;92.18;100688.33;1725641;81;21175;-40
2021/03/13 02:31:18;;;;;;;21.37;11.43;;;;;;;-3.07;92.16;100698.92;1727510;83;21006;-40
2021/03/13 02:33:46;;;;;;;57.23;13.90;;;;;;;-3.06;92.27;100705.30;1727129;83;21002;-40
2021/03/13 02:36:17;;;;;;;24.05;11.60;;;;;;;-3.04;92.31;100712.98;1723000;83;21001;-41
2021/03/13 02:38:49;;;;;;;31.68;10.68;;;;;;;-3.02;92.29;100713.91;1726811;83;21390;-40
2021/03/13 02:41:19;;;;;;;47.13;11.70;;;;;;;-3.03;92.13;100719.77;1700187;81;21014;-42
2021/03/13 02:43:51;;;;;;;28.00;10.18;;;;;;;-2.99;92.15;100721.63;1727199;81;21030;-42
2021/03/13 02:46:21;;;;;;;24.63;10.60;;;;;;;-2.97;92.14;100723.81;1727172;81;21073;-41
2021/03/13 02:48:50;;;;;;;17.70;9.43;;;;;;;-2.96;92.21;100721.75;1698956;83;21054;-41
2021/03/13 02:51:20;;;;;;;38.70;11.25;;;;;;;-2.95;92.21;100720.95;1727264;83;22275;-42
2021/03/13 02:53:48;;;;;;;53.42;12.20;;;;;;;-2.92;92.19;100728.67;1727048;83;20975;-40
2021/03/13 02:56:18;;;;;;;67.17;13.80;;;;;;;-2.89;92.19;100731.73;1720703;83;21022;-40
2021/03/13 02:58:50;;;;;;;30.23;13.22;;;;;;;-2.87;92.25;100734.35;1719771;83;21579;-39
2021/03/13 03:01:19;;;;;;;42.80;14.03;;;;;;;-2.85;92.22;100734.86;1692968;83;21118;-41
2021/03/13 03:03:48;;;;;;;31.48;12.60;;;;;;;-2.80;92.27;100745.19;1719692;83;22341;-41
2021/03/13 03:06:18;;;;;;;41.25;13.68;;;;;;;-2.77;92.32;100746.58;1718778;83;20971;-41
2021/03/13 03:08:49;;;;;;;34.23;13.95;;;;;;;-2.75;92.33;100756.38;1719710;83;20939;-42
2021/03/13 03:11:22;;;;;;;63.05;15.43;;;;;;;-2.73;92.30;100755.19;1693103;83;21042;-40
2021/03/13 03:13:51;;;;;;;66.60;15.03;;;;;;;-2.70;92.28;100759.95;1693529;83;20951;-41
2021/03/13 03:16:20;;;;;;;88.55;16.30;;;;;;;-2.68;92.33;100762.15;1719708;83;21369;-43
2021/03/13 03:18:50;;;;;;;49.33;14.10;;;;;;;-2.65;92.38;100760.16;1719750;83;21591;-40
2021/03/13 03:21:19;;;;;;;56.90;16.82;;;;;;;-2.63;92.41;100754.35;1719651;83;21013;-42
2021/03/13 03:23:48;;;;;;;45.17;17.37;;;;;;;-2.61;92.38;100754.02;1719586;83;21019;-42
2021/03/13 03:26:18;;;;;;;51.00;16.87;;;;;;;-2.59;92.40;100759.13;1719600;83;20990;-42
2021/03/13 03:28:47;;;;;;;64.05;16.50;;;;;;;-2.56;92.42;100764.73;1719664;83;21380;-42
2021/03/13 03:31:16;;;;;;;39.25;17.52;;;;;;;-2.54;92.38;100763.13;1719448;82;21042;-42
2021/03/13 03:33:45;;;;;;;75.52;18.40;;;;;;;-2.51;92.35;100770.84;1719619;83;20986;-42
2021/03/13 03:36:13;;;;;;;64.87;17.35;;;;;;;-2.49;92.37;100769.23;1719581;83;21085;-41
2021/03/13 03:38:41;;;;;;;75.35;20.65;;;;;;;-2.46;92.35;100775.69;1719703;83;20998;-41
2021/03/13 03:41:10;;;;;;;70.37;23.32;;;;;;;-2.43;92.36;100767.36;1719492;82;21385;-41
2021/03/13 03:43:44;;;;;;;69.37;25.23;;;;;;;-2.41;92.37;100762.78;1719599;82;21093;-42
2021/03/13 03:46:13;;;;;;;61.50;23.70;;;;;;;-2.40;92.29;100754.41;1714854;83;21015;-41
2021/03/13 03:48:41;;;;;;;62.95;22.82;;;;;;;-2.37;92.19;100761.25;1719633;83;21002;-41
2021/03/13 03:51:13;;;;;;;79.62;22.45;;;;;;;-2.34;92.18;100760.09;1719240;83;20955;-40
2021/03/13 03:53:53;;;;;;;79.80;23.22;;;;;;;-2.32;92.11;100763.56;1719255;83;21406;-40
2021/03/13 03:56:22;;;;;;;54.48;20.45;;;;;;;-2.31;92.15;100759.83;1719532;83;21519;-42
2021/03/13 03:58:50;;;;;;;86.60;24.35;;;;;;;-2.29;92.18;100756.48;1719647;83;21493;-42
2021/03/13 04:01:18;;;;;;;79.75;21.77;;;;;;;-2.28;92.10;100756.95;1693255;83;20963;-41
2021/03/13 04:03:53;;;;;;;53.25;19.60;;;;;;;-2.25;92.13;100766.81;1693314;83;21011;-41
2021/03/13 04:06:21;;;;;;;46.18;16.70;;;;;;;-2.24;92.16;100762.59;1719725;83;21350;-41
2021/03/13 04:08:52;;;;;;;58.15;20.60;;;;;;;-2.23;92.12;100760.52;1719662;83;21473;-41
2021/03/13 04:11:21;;;;;;;66.77;22.10;;;;;;;-2.21;92.12;100756.36;1693060;83;20982;-40
2021/03/13 04:13:51;;;;;;;91.50;25.20;;;;;;;-2.20;92.05;100756.44;1719560;83;20931;-41
2021/03/13 04:16:20;;;;;;;82.10;22.10;;;;;;;-2.17;92.09;100754.41;1719850;83;20983;-41
2021/03/13 04:18:48;;;;;;;72.42;23.42;;;;;;;-2.14;92.13;100754.94;1719886;83;22285;-42
2021/03/13 04:21:16;;;;;;;78.78;20.82;;;;;;;-2.13;92.13;100747.78;1719726;83;21153;-41
2021/03/13 04:23:47;;;;;;;77.42;24.00;;;;;;;-2.12;92.02;100737.71;1693569;83;21027;-42
2021/03/13 04:26:18;;;;;;;109.05;34.75;;;;;;;-2.09;92.03;100742.02;1693697;83;21191;-42
2021/03/13 04:28:46;;;;;;;94.05;26.45;;;;;;;-2.07;92.01;100742.55;1719871;83;21070;-40
2021/03/13 04:31:21;;;;;;;103.35;24.55;;;;;;;-2.06;92.02;100744.66;1719793;83;21387;-42
2021/03/13 04:33:50;;;;;;;105.65;23.77;;;;;;;-2.03;91.98;100739.31;1719832;83;20963;-41
2021/03/13 04:36:17;;;;;;;96.60;23.35;;;;;;;-1.99;91.93;100744.50;1719727;83;20967;-42
2021/03/13 04:38:45;;;;;;;78.20;24.40;;;;;;;-1.97;91.87;100747.57;1719713;83;21006;-41
2021/03/13 04:41:13;;;;;;;75.47;23.42;;;;;;;-1.93;91.86;100749.80;1719762;83;21046;-42
2021/03/13 04:43:40;;;;;;;75.85;21.52;;;;;;;-1.91;91.77;100754.14;1693335;83;21221;-42
2021/03/13 04:46:08;;;;;;;63.20;22.55;;;;;;;-1.89;91.73;100746.59;1719766;83;21100;-41
2021/03/13 04:48:36;;;;;;;70.35;21.37;;;;;;;-1.86;91.61;100747.97;1719783;83;21050;-40
2021/03/13 04:51:06;;;;;;;80.20;21.25;;;;;;;-1.82;91.49;100747.66;1719709;83;21078;-42
2021/03/13 04:53:34;;;;;;;59.93;22.10;;;;;;;-1.80;91.33;100743.11;1719742;83;21112;-41
2021/03/13 04:56:01;;;;;;;54.90;20.90;;;;;;;-1.78;91.18;100746.57;1713305;83;21291;-42
2021/03/13 04:58:29;;;;;;;58.40;20.90;;;;;;;-1.73;90.98;100741.67;1686401;84;21027;-43
2021/03/13 05:00:57;;;;;;;65.72;22.98;;;;;;;-1.68;90.93;100738.01;1706236;84;20956;-42
2021/03/13 05:03:26;;;;;;;78.05;21.07;;;;;;;-1.65;90.74;100738.11;1704205;84;21015;-41
2021/03/13 05:05:54;;;;;;;58.08;21.23;;;;;;;-1.61;90.61;100743.37;1706308;84;20957;-42
2021/03/13 05:08:21;;;;;;;87.92;22.60;;;;;;;-1.58;90.38;100743.89;1706250;83;21359;-42
2021/03/13 05:10:48;;;;;;;79.90;24.27;;;;;;;-1.54;90.20;100742.31;1706235;83;21047;-41
2021/03/13 05:13:16;;;;;;;73.22;23.47;;;;;;;-1.50;90.17;100738.67;1706230;84;21039;-42
2021/03/13 05:15:44;;;;;;;77.03;22.77;;;;;;;-1.44;90.11;100739.31;1706184;84;21051;-42
2021/03/13 05:18:11;;;;;;;65.75;22.02;;;;;;;-1.39;89.80;100747.06;1706265;84;21003;-42
2021/03/13 05:20:39;;;;;;;71.95;20.70;;;;;;;-1.34;89.70;100748.12;1706238;82;21369;-42
2021/03/13 05:23:07;;;;;;;66.33;22.15;;;;;;;-1.28;89.54;100751.25;1706129;83;20968;-42
2021/03/13 05:25:35;;;;;;;115.80;25.35;;;;;;;-1.24;89.32;100757.77;1706272;84;21019;-41
2021/03/13 05:28:02;;;;;;;99.25;21.48;;;;;;;-1.19;89.23;100757.52;1706236;84;21046;-42
2021/03/13 05:30:30;;;;;;;109.20;22.67;;;;;;;-1.14;89.05;100765.70;1706226;84;21039;-42
2021/03/13 05:32:58;;;;;;;86.53;22.25;;;;;;;-1.12;88.97;100759.03;1706263;82;21302;-43
2021/03/13 05:35:26;;;;;;;84.83;21.02;;;;;;;-1.07;88.77;100758.34;1706162;84;20975;-41
2021/03/13 05:37:53;;;;;;;80.57;22.65;;;;;;;-1.01;88.63;100764.05;1706227;83;21059;-41
2021/03/13 05:40:22;;;;;;;42.23;21.48;;;;;;;-0.96;88.55;100765.06;1705857;83;21129;-41
2021/03/13 05:42:49;;;;;;;44.25;20.75;;;;;;;-0.92;88.19;100766.89;1706172;82;20893;-41
2021/03/13 05:45:17;;;;;;;43.90;20.72;;;;;;;-0.89;87.93;100767.41;1706173;84;21384;-41
2021/03/13 05:47:44;;;;;;;49.25;21.65;;;;;;;-0.85;87.85;100782.37;1706204;84;20991;-42
2021/03/13 05:50:16;;;;;;;43.10;19.95;;;;;;;-0.83;87.70;100784.56;1706208;82;21015;-42
2021/03/13 05:52:46;;;;;;;50.95;19.20;;;;;;;-0.79;87.67;100787.66;1706156;83;21021;-42
2021/03/13 05:55:16;;;;;;;47.93;19.85;;;;;;;-0.76;87.51;100792.45;1706114;83;20979;-42
2021/03/13 05:57:43;;;;;;;48.38;20.08;;;;;;;-0.73;87.21;100782.77;1664140;84;21387;-42
2021/03/13 06:00:12;;;;;;;40.40;20.08;;;;;;;-0.71;87.05;100791.31;1706118;84;20972;-43
2021/03/13 06:02:40;;;;;;;46.05;19.80;;;;;;;-0.68;86.98;100796.49;1706164;84;21063;-42
2021/03/13 06:05:10;;;;;;;43.98;19.95;;;;;;;-0.65;86.84;100800.41;1706177;83;20960;-40
2021/03/13 06:07:37;;;;;;;52.48;20.50;;;;;;;-0.65;86.61;100795.31;1706244;83;21076;-41
2021/03/13 06:10:08;;;;;;;43.17;19.77;;;;;;;-0.63;86.46;100801.73;1706193;84;21372;-42
2021/03/13 06:12:35;;;;;;;38.75;20.30;;;;;;;-0.62;86.39;100793.30;1706098;83;21108;-41
2021/03/13 06:15:04;;;;;;;38.55;18.45;;;;;;;-0.62;86.34;100795.84;1706198;84;21754;-41
2021/03/13 06:17:59;;;;;;;44.93;19.48;;;;;;;-0.63;86.30;100800.08;1706109;84;21211;-41
2021/03/13 06:20:36;;;;;;;35.90;18.95;;;;;;;-0.59;86.30;100801.91;1706190;83;21062;-43
2021/03/13 06:23:12;;;;;;;35.43;19.15;;;;;;;-0.55;86.19;100813.02;1706132;84;21377;-41
2021/03/13 06:25:41;;;;;;;38.42;18.17;;;;;;;-0.53;86.14;100816.48;1706144;84;21485;-41
2021/03/13 06:28:15;;;;;;;37.48;18.48;;;;;;;-0.52;86.14;100819.47;1706176;83;21105;-42
2021/03/13 06:30:48;;;;;;;35.25;16.82;;;;;;;-0.47;86.13;100824.72;1706142;83;21063;-41
2021/03/13 06:33:32;;;;;;;42.70;18.80;;;;;;;-0.40;85.98;100825.80;1706201;84;21007;-42
2021/03/13 06:36:05;;;;;;;39.00;19.92;;;;;;;-0.37;85.93;100833.13;1706199;84;21207;-42
2021/03/13 06:38:36;;;;;;;38.45;18.80;;;;;;;-0.33;85.72;100834.08;1706089;83;21030;-41
2021/03/13 06:41:15;;;;;;;50.12;19.65;;;;;;;-0.27;85.63;100835.96;1706052;84;21344;-42
2021/03/13 06:43:49;;;;;;;42.20;19.48;;;;;;;-0.23;85.46;100841.20;1706198;82;21714;-41
2021/03/13 06:46:19;;;;;;;37.55;19.60;;;;;;;-0.23;85.13;100848.84;1706182;84;21146;-41
2021/03/13 06:48:57;;;;;;;58.05;21.23;;;;;;;-0.23;85.27;100844.14;1706264;84;22260;-42
2021/03/13 06:51:37;;;;;;;53.25;20.45;;;;;;;-0.21;85.02;100849.75;1706198;84;20999;-42
2021/03/13 06:54:11;;;;;;;48.75;20.48;;;;;;;-0.21;84.91;100843.39;1706066;83;21035;-41
2021/03/13 06:56:59;;;;;;;40.58;17.67;;;;;;;-0.22;84.99;100847.14;1706114;82;21007;-42
2021/03/13 06:59:35;;;;;;;45.05;20.35;;;;;;;-0.20;85.06;100850.59;1706237;83;21596;-42
2021/03/13 07:02:07;;;;;;;57.60;21.17;;;;;;;-0.16;84.93;100853.30;1705702;83;21529;-40
2021/03/13 07:04:43;;;;;;;46.95;21.00;;;;;;;-0.14;84.82;100863.52;1706277;84;21624;-41
2021/03/13 07:07:15;;;;;;;;;;;;;;;-0.13;84.84;100861.84;1708663;84;20956;-41
2021/03/13 07:09:55;;;;;;;43.63;20.68;;;;;;;-0.06;84.86;100868.46;1704568;84;20145;-41
2021/03/13 07:12:31;;;;;;;36.68;18.75;;;;;;;0.04;84.69;100868.34;1706166;84;21043;-42
2021/03/13 07:15:24;;;;;;;44.75;20.57;;;;;;;0.16;84.71;100869.14;1700978;84;21591;-42
2021/03/13 07:17:54;;;;;;;39.08;19.85;;;;;;;0.27;84.35;100869.47;1706054;83;21083;-41
2021/03/13 07:20:28;;;;;;;45.83;20.65;;;;;;;0.40;83.99;100863.91;1706210;84;21043;-42
2021/03/13 07:22:59;;;;;;;37.33;19.42;;;;;;;0.50;83.46;100866.72;1705951;84;21034;-42
2021/03/13 07:25:29;;;;;;;41.88;20.92;;;;;;;0.59;83.20;100862.30;1705840;83;21046;-41
2021/03/13 07:28:03;;;;;;;43.55;21.30;;;;;;;0.60;82.48;100864.91;1706126;84;22081;-41
2021/03/13 07:30:32;;;;;;;48.55;21.82;;;;;;;0.61;82.58;100861.55;1706069;84;21047;-41
2021/03/13 07:33:07;;;;;;;41.05;20.92;;;;;;;0.63;82.53;100866.27;1706132;83;21083;-41
2021/03/13 07:35:41;;;;;;;44.75;22.10;;;;;;;0.74;82.32;100870.80;1705617;84;21074;-41
2021/03/13 07:38:11;;;;;;;45.70;21.23;;;;;;;0.83;82.16;100865.55;1705263;82;21019;-42
2021/03/13 07:40:42;;;;;;;40.52;21.70;;;;;;;0.89;81.74;100871.67;1706125;83;21370;-41
2021/03/13 07:43:12;;;;;;;46.90;21.12;;;;;;;0.94;81.44;100875.20;1706002;82;21144;-42
2021/03/13 07:45:40;;;;;;;51.98;23.55;;;;;;;1.00;81.36;100879.19;1706147;84;21047;-42
2021/03/13 07:48:09;;;;;;;47.60;22.13;;;;;;;1.02;81.07;100885.20;1706041;82;21675;-41
2021/03/13 07:50:46;;;;;;;39.18;22.02;;;;;;;1.01;81.01;100883.47;1706187;84;21011;-41
2021/03/13 07:53:11;;;;;;;43.75;21.77;;;;;;;1.04;80.93;100880.16;1705908;82;21213;-41
2021/03/13 07:55:38;;;;;;;50.67;22.07;;;;;;;1.13;80.93;100876.14;1706108;84;21027;-41
2021/03/13 07:58:09;;;;;;;51.63;24.63;;;;;;;1.19;80.49;100888.63;1713358;83;20960;-41
2021/03/13 08:00:44;;;;;;;49.48;23.67;;;;;;;1.25;80.33;100883.26;1713999;83;20963;-41
2021/03/13 08:03:38;;;;;;;44.55;20.92;;;;;;;1.32;80.01;100878.34;1713968;83;20960;-41
2021/03/13 08:06:13;;;;;;;38.13;19.85;;;;;;;1.32;79.76;100880.47;1714038;83;21379;-41
2021/03/13 08:08:50;;;;;;;38.38;20.43;;;;;;;1.28;79.60;100881.21;1714135;83;21035;-42
2021/03/13 08:12:51;;;;;;;45.95;21.15;;;;;;;1.15;79.72;100880.02;1776991;79;22452;-41
2021/03/13 08:15:42;;;;;;;37.05;20.20;;;;;;;1.10;79.92;100887.96;1749442;82;20955;-40
2021/03/13 08:18:12;;;;;;;37.20;20.30;;;;;;;1.14;79.96;100885.55;1749413;82;21201;-40
2021/03/13 08:20:39;;;;;;;44.48;21.00;;;;;;;1.16;80.02;100881.75;1749340;82;20951;-41
2021/03/13 08:23:18;;;;;;;46.68;20.68;;;;;;;1.21;79.97;100888.26;1749447;82;20939;-41
2021/03/13 08:25:58;;;;;;;37.48;18.62;;;;;;;1.26;79.72;100886.69;1749474;82;21022;-41
2021/03/13 08:28:50;;;;;;;32.48;18.23;;;;;;;1.22;79.59;100885.73;1749410;82;20943;-40
2021/03/13 08:31:32;;;;;;;39.33;18.75;;;;;;;1.24;79.69;100884.52;1749372;82;21203;-41
2021/03/13 08:34:08;;;;;;;45.50;19.85;;;;;;;1.33;79.62;100878.80;1749370;82;21085;-41
2021/03/13 08:36:50;;;;;;;49.58;20.23;;;;;;;1.44;79.59;100881.20;1749530;82;21588;-41
2021/03/13 08:39:22;;;;;;;47.23;20.35;;;;;;;1.60;79.42;100885.00;1749369;82;20939;-40
2021/03/13 08:41:56;;;;;;;52.10;22.37;;;;;;;1.69;78.78;100883.98;1749426;82;20936;-41
2021/03/13 08:44:36;;;;;;;43.87;19.80;;;;;;;1.73;78.40;100884.89;1719596;83;21371;-41
2021/03/13 08:47:12;;;;;;;40.05;18.52;;;;;;;1.77;78.29;100888.40;1719523;83;20971;-42
2021/03/13 08:49:43;;;;;;;41.48;19.95;;;;;;;1.78;78.21;100885.02;1719696;82;20959;-40
2021/03/13 08:52:21;;;;;;;36.50;18.82;;;;;;;1.80;78.16;100879.14;1719464;83;20955;-40
2021/03/13 08:54:50;;;;;;;37.15;17.67;;;;;;;1.78;77.95;100883.34;1719588;83;21085;-41
2021/03/13 08:57:27;;;;;;;31.97;16.62;;;;;;;1.70;78.08;100890.81;1719646;83;21606;-42
2021/03/13 08:59:59;;;;;;;32.95;17.15;;;;;;;1.68;78.25;100886.08;1719525;83;20959;-42
2021/03/13 09:02:36;;;;;;;37.78;16.77;;;;;;;1.74;78.41;100881.52;1719663;83;21611;-42
2021/03/13 09:05:15;;;;;;;39.53;19.35;;;;;;;1.76;78.16;100879.86;1719517;83;20991;-42
2021/03/13 09:07:48;;;;;;;37.00;16.05;;;;;;;1.76;78.32;100885.40;1719483;83;21358;-41
2021/03/13 09:10:15;;;;;;;34.00;16.57;;;;;;;1.82;78.15;100886.81;1719541;83;21281;-41
2021/03/13 09:12:44;;;;;;;35.50;16.23;;;;;;;1.87;78.07;100882.68;1720024;83;20943;-41
2021/03/13 09:15:15;;;;;;;38.33;16.87;;;;;;;1.95;78.04;100882.47;1720291;83;21042;-41
2021/03/13 09:17:42;;;;;;;40.63;18.32;;;;;;;2.06;77.71;100883.12;1720257;83;20935;-43
2021/03/13 09:20:17;;;;;;;31.70;16.27;;;;;;;2.07;77.80;100883.17;1720324;83;20939;-43
2021/03/13 09:22:46;;;;;;;33.25;16.75;;;;;;;2.25;77.77;100878.89;1720205;83;21396;-43
2021/03/13 09:25:20;;;;;;;32.30;15.10;;;;;;;2.51;77.11;100879.00;1719743;83;21027;-43
2021/03/13 09:27:50;;;;;;;30.55;15.10;;;;;;;2.48;75.92;100886.21;1719817;83;21014;-43
2021/03/13 09:30:23;;;;;;;29.70;15.03;;;;;;;2.36;76.21;100888.48;1719749;83;20998;-42
2021/03/13 09:32:52;;;;;;;28.12;15.60;;;;;;;2.58;75.93;100883.02;1719765;83;20946;-43
2021/03/13 09:35:23;;;;;;;29.63;15.25;;;;;;;2.58;75.93;100883.02;1719697;83;21377;-42
2021/03/13 09:37:50;;;;;;;34.75;14.95;;;;;;;2.57;75.27;100896.62;1719685;82;21548;-42
2021/03/13 09:40:23;;;;;;;29.85;15.95;;;;;;;2.43;75.62;100894.20;1719822;83;21006;-43
2021/03/13 09:42:51;;;;;;;36.10;15.90;;;;;;;2.44;75.89;100895.92;1719753;83;20915;-43
2021/03/13 09:45:22;;;;;;;26.52;14.80;;;;;;;2.41;75.88;100890.75;1719849;83;21481;-43
2021/03/13 09:47:58;;;;;;;32.60;14.45;;;;;;;2.32;76.08;100887.57;1719715;82;21225;-43
2021/03/13 09:50:35;;;;;;;27.02;13.53;;;;;;;2.36;76.31;100892.31;1719671;83;21073;-43
2021/03/13 09:53:06;;;;;;;31.35;14.73;;;;;;;2.41;76.15;100882.66;1719726;83;21022;-43
2021/03/13 09:55:34;;;;;;;37.55;15.48;;;;;;;2.50;76.38;100881.11;1719756;83;20959;-42
2021/03/13 09:58:03;;;;;;;33.95;15.80;;;;;;;2.61;76.32;100872.00;1719761;83;21493;-42
2021/03/13 10:00:41;;;;;;;35.73;15.70;;;;;;;2.77;76.01;100877.02;1719737;83;21430;-43
2021/03/13 10:03:15;;;;;;;37.25;16.48;;;;;;;2.81;75.75;100876.23;1719654;83;21034;-42
2021/03/13 10:05:51;;;;;;;33.45;14.58;;;;;;;2.94;75.53;100877.34;1719796;83;21571;-44
2021/03/13 10:08:20;;;;;;;23.77;14.00;;;;;;;3.09;75.22;100867.82;1719641;83;21007;-42
2021/03/13 10:10:51;;;;;;;27.55;14.50;;;;;;;3.11;74.57;100872.55;1719775;83;20963;-43
2021/03/13 10:13:20;;;;;;;45.45;16.27;;;;;;;3.02;74.62;100865.55;1719680;83;21377;-43
2021/03/13 10:15:47;;;;;;;41.18;16.17;;;;;;;3.08;75.04;100869.94;1719685;83;21989;-42
2021/03/13 10:18:18;;;;;;;35.70;15.48;;;;;;;3.23;74.69;100868.08;1719772;83;21003;-46
2021/03/13 10:20:52;;;;;;;30.65;16.77;;;;;;;3.42;73.73;100870.58;1719807;83;21050;-44
2021/03/13 10:23:39;;;;;;;31.87;14.13;;;;;;;3.42;73.73;100870.58;1719757;83;21015;-45
2021/03/13 10:26:13;;;;;;;56.68;15.45;;;;;;;3.49;73.30;100868.11;1719207;83;21393;-44
2021/03/13 10:28:48;;;;;;;31.73;15.85;;;;;;;3.59;73.61;100869.98;1719709;83;21069;-43
2021/03/13 10:31:20;;;;;;;;;;;;;;;3.77;73.10;100865.58;1722235;83;21038;-43
2021/03/13 10:33:50;;;;;;;58.30;15.28;;;;;;;3.93;72.58;100869.27;1719745;83;20140;-43
2021/03/13 10:36:19;;;;;;;84.62;16.50;;;;;;;4.05;72.58;100863.48;1719758;83;21007;-43
2021/03/13 10:38:50;;;;;;;94.87;16.42;;;;;;;4.14;71.79;100853.35;1719700;83;21210;-44
2021/03/13 10:41:22;;;;;;;61.45;17.12;;;;;;;4.21;71.99;100856.88;1719633;83;21022;-44
2021/03/13 10:43:48;;;;;;;26.50;14.55;;;;;;;4.30;71.74;100859.55;1719783;83;20978;-44
2021/03/13 10:46:25;;;;;;;26.85;16.02;;;;;;;4.39;71.45;100863.07;1719650;83;21081;-44
2021/03/13 10:48:58;;;;;;;28.32;15.63;;;;;;;4.41;71.08;100853.29;1717926;83;21030;-43
2021/03/13 10:51:30;;;;;;;31.93;14.50;;;;;;;4.46;70.99;100856.77;1719716;83;22346;-46
2021/03/13 10:53:59;;;;;;;27.07;14.80;;;;;;;4.50;70.38;100856.41;1719694;83;21550;-44
2021/03/13 10:56:41;;;;;;;24.70;14.20;;;;;;;4.58;70.86;100851.38;1719694;83;21031;-46
2021/03/13 10:59:09;;;;;;;25.95;14.45;;;;;;;4.69;70.53;100851.52;1719666;83;21299;-46
2021/03/13 11:01:36;;;;;;;25.88;15.18;;;;;;;4.78;69.89;100848.17;1719679;83;21015;-46
2021/03/13 11:04:05;;;;;;;28.30;15.10;;;;;;;4.73;69.29;100845.58;1719713;83;21216;-46
2021/03/13 11:06:34;;;;;;;40.30;17.42;;;;;;;4.58;69.37;100852.66;1719711;83;21053;-46
2021/03/13 11:09:06;;;;;;;54.58;16.02;;;;;;;4.38;69.97;100848.53;1719788;83;21612;-46
2021/03/13 11:11:34;;;;;;;55.17;16.30;;;;;;;4.42;71.08;100845.16;1718946;82;21034;-51
2021/03/13 11:14:02;;;;;;;29.10;14.75;;;;;;;4.68;71.10;100856.20;1706189;84;20961;-46
2021/03/13 11:16:29;;;;;;;32.63;15.88;;;;;;;4.93;70.24;100852.64;1706156;84;21205;-44
2021/03/13 11:18:59;;;;;;;27.22;15.38;;;;;;;4.87;69.65;100846.58;1706102;84;20955;-44
2021/03/13 11:21:27;;;;;;;33.55;15.35;;;;;;;4.62;70.06;100845.44;1706165;84;21046;-43
2021/03/13 11:23:54;;;;;;;29.92;15.72;;;;;;;4.47;70.12;100837.14;1706261;84;21627;-43
2021/03/13 11:26:23;;;;;;;63.90;18.98;;;;;;;4.38;70.78;100841.72;1706226;84;20905;-44
2021/03/13 11:28:52;;;;;;;61.33;20.55;;;;;;;4.66;71.91;100842.47;1706222;83;21211;-43
2021/03/13 11:31:20;;;;;;;31.50;16.05;;;;;;;4.82;70.72;100830.72;1706219;84;21493;-44
2021/03/13 11:33:48;;;;;;;24.02;15.45;;;;;;;4.72;69.87;100845.98;1706179;84;21332;-43
2021/03/13 11:36:16;;;;;;;26.40;15.40;;;;;;;4.72;69.87;100845.98;1706194;84;21588;-41